createdAt,value
2017-05-16T00:01:28.517Z,2.14
2017-05-16T00:03:54.870Z,1.92
2017-05-16T00:06:23.025Z,2.30
2017-05-16T00:08:51.538Z,2.74
2017-05-16T00:11:21.165Z,2.08
2017-05-16T00:13:49.431Z,1.84
2017-05-16T00:16:17.011Z,1.86
2017-05-16T00:18:43.456Z,2.14
2017-05-16T00:21:10.653Z,2.20
2017-05-16T00:23:37.037Z,2.38
2017-05-16T00:26:03.469Z,2.04
2017-05-16T00:28:29.810Z,2.22
2017-05-16T00:30:56.126Z,2.22
2017-05-16T00:33:22.458Z,2.78
2017-05-16T00:35:48.851Z,2.14
2017-05-16T00:38:15.183Z,2.34
2017-05-16T00:40:41.575Z,1.86
2017-05-16T00:43:07.903Z,1.90
2017-05-16T00:45:34.231Z,2.48
2017-05-16T00:48:00.569Z,2.80
2017-05-16T00:50:27.058Z,2.50
2017-05-16T00:52:54.082Z,1.96
2017-05-16T00:55:20.570Z,2.46
2017-05-16T00:57:46.901Z,2.68
2017-05-16T01:00:13.225Z,2.28
2017-05-16T01:02:39.569Z,2.56
2017-05-16T01:05:05.903Z,2.34
2017-05-16T01:07:32.379Z,2.82
2017-05-16T01:09:58.726Z,2.22
2017-05-16T01:12:25.094Z,2.32
2017-05-16T01:14:51.410Z,2.38
2017-05-16T01:17:17.870Z,2.20
2017-05-16T01:19:44.207Z,2.26
2017-05-16T01:22:10.555Z,1.90
2017-05-16T01:24:36.861Z,2.70
2017-05-16T01:27:03.802Z,2.24
2017-05-16T01:29:30.490Z,2.10
2017-05-16T01:31:56.988Z,2.66
2017-05-16T01:34:23.335Z,2.10
2017-05-16T01:36:49.707Z,2.10
2017-05-16T01:39:16.821Z,2.40
2017-05-16T01:41:43.170Z,2.28
2017-05-16T01:44:09.597Z,2.22
2017-05-16T01:46:35.944Z,1.90
2017-05-16T01:49:02.289Z,2.54
2017-05-16T01:51:28.662Z,2.36
2017-05-16T01:53:54.996Z,2.10
2017-05-16T01:56:21.330Z,2.14
2017-05-16T01:58:47.635Z,2.54
2017-05-16T02:01:13.967Z,2.28
2017-05-16T02:03:40.308Z,2.50
2017-05-16T02:06:06.649Z,2.78
2017-05-16T02:08:32.976Z,2.12
2017-05-16T02:10:59.307Z,1.84
2017-05-16T02:13:25.645Z,1.82
2017-05-16T02:15:51.982Z,2.38
2017-05-16T02:18:18.299Z,2.32
2017-05-16T02:20:44.621Z,1.94
2017-05-16T02:23:10.957Z,2.34
2017-05-16T02:25:37.257Z,1.70
2017-05-16T02:28:03.562Z,2.80
2017-05-16T02:30:29.882Z,2.60
2017-05-16T02:32:56.236Z,2.02
2017-05-16T02:35:22.557Z,1.96
2017-05-16T02:37:48.874Z,2.34
2017-05-16T02:40:15.190Z,2.66
2017-05-16T02:42:41.661Z,2.82
2017-05-16T02:45:07.972Z,2.22
2017-05-16T02:47:34.303Z,2.66
2017-05-16T02:50:00.681Z,2.20
2017-05-16T02:52:27.036Z,2.38
2017-05-16T02:54:53.360Z,2.10
2017-05-16T02:57:19.676Z,2.62
2017-05-16T02:59:46.002Z,2.64
2017-05-16T03:02:12.333Z,2.50
2017-05-16T03:04:38.675Z,2.50
2017-05-16T03:07:05.008Z,2.90
2017-05-16T03:09:31.329Z,2.64
2017-05-16T03:11:57.663Z,1.94
2017-05-16T03:14:24.133Z,2.10
2017-05-16T03:16:50.455Z,2.50
2017-05-16T03:19:16.832Z,2.20
2017-05-16T03:21:43.162Z,2.74
2017-05-16T03:24:09.499Z,1.94
2017-05-16T03:26:35.800Z,2.26
2017-05-16T03:29:02.118Z,2.16
2017-05-16T03:31:28.465Z,2.00
2017-05-16T03:33:54.789Z,1.82
2017-05-16T03:36:21.188Z,2.54
2017-05-16T03:38:47.506Z,2.70
2017-05-16T03:41:13.837Z,2.94
2017-05-16T03:43:40.135Z,2.52
2017-05-16T03:46:06.492Z,2.60
2017-05-16T03:48:32.811Z,2.76
2017-05-16T03:50:59.156Z,2.22
2017-05-16T03:53:25.465Z,2.36
2017-05-16T03:55:51.798Z,2.50
2017-05-16T03:58:18.115Z,2.32
2017-05-16T04:00:44.456Z,2.74
2017-05-16T04:03:10.782Z,2.00
2017-05-16T04:05:37.113Z,3.08
2017-05-16T04:08:03.473Z,2.38
2017-05-16T04:10:29.785Z,2.40
2017-05-16T04:12:56.129Z,2.28
2017-05-16T04:15:22.477Z,2.72
2017-05-16T04:17:48.791Z,2.58
2017-05-16T04:20:15.110Z,2.30
2017-05-16T04:22:41.437Z,2.92
2017-05-16T04:25:07.754Z,2.98
2017-05-16T04:27:34.084Z,2.48
2017-05-16T04:30:00.425Z,2.60
2017-05-16T04:32:26.768Z,1.98
2017-05-16T04:34:53.091Z,2.76
2017-05-16T04:37:19.453Z,2.70
2017-05-16T04:39:45.768Z,3.08
2017-05-16T04:42:12.089Z,3.24
2017-05-16T04:44:38.429Z,2.98
2017-05-16T04:47:04.752Z,2.58
2017-05-16T04:49:31.077Z,2.58
2017-05-16T04:51:57.399Z,2.74
2017-05-16T04:54:23.720Z,2.56
2017-05-16T04:56:50.039Z,2.70
2017-05-16T04:59:16.368Z,2.48
2017-05-16T05:01:42.692Z,2.44
2017-05-16T05:04:09.041Z,2.40
2017-05-16T05:06:35.343Z,2.80
2017-05-16T05:09:01.673Z,2.54
2017-05-16T05:11:28.009Z,3.04
2017-05-16T05:13:54.360Z,2.58
2017-05-16T05:16:20.721Z,2.96
2017-05-16T05:18:47.141Z,3.10
2017-05-16T05:21:13.485Z,3.28
2017-05-16T05:23:39.804Z,2.72
2017-05-16T05:26:06.153Z,2.84
2017-05-16T05:28:32.479Z,3.32
2017-05-16T05:30:58.816Z,2.78
2017-05-16T05:33:25.611Z,2.40
2017-05-16T05:35:51.949Z,3.20
2017-05-16T05:38:18.273Z,2.76
2017-05-16T05:40:44.633Z,2.46
2017-05-16T05:43:10.960Z,2.24
2017-05-16T05:45:37.269Z,2.60
2017-05-16T05:48:03.603Z,2.42
2017-05-16T05:50:29.973Z,2.22
2017-05-16T05:52:56.287Z,2.70
2017-05-16T05:55:22.614Z,2.30
2017-05-16T05:57:48.912Z,3.04
2017-05-16T06:00:15.241Z,2.66
2017-05-16T06:02:41.558Z,3.30
2017-05-16T06:05:07.936Z,2.20
2017-05-16T06:07:34.274Z,2.94
2017-05-16T06:10:00.648Z,2.94
2017-05-16T06:12:27.005Z,3.02
2017-05-16T06:14:53.350Z,2.50
2017-05-16T06:17:19.667Z,3.00
2017-05-16T06:19:45.997Z,3.44
2017-05-16T06:22:12.325Z,2.48
2017-05-16T06:24:38.652Z,2.96
2017-05-16T06:27:05.000Z,2.22
2017-05-16T06:29:31.364Z,2.58
2017-05-16T06:31:57.689Z,2.70
2017-05-16T06:34:24.056Z,2.26
2017-05-16T06:36:50.417Z,2.62
2017-05-16T06:39:16.779Z,2.84
2017-05-16T06:41:43.120Z,2.60
2017-05-16T06:44:09.463Z,2.50
2017-05-16T06:46:35.769Z,2.76
2017-05-16T06:49:02.154Z,3.04
2017-05-16T06:51:28.484Z,2.50
2017-05-16T06:53:54.817Z,2.46
2017-05-16T06:56:21.141Z,2.84
2017-05-16T06:58:47.533Z,2.40
2017-05-16T07:01:13.879Z,2.48
2017-05-16T07:03:40.226Z,2.94
2017-05-16T07:06:06.552Z,2.90
2017-05-16T07:08:32.905Z,2.32
2017-05-16T07:10:59.235Z,2.64
2017-05-16T07:13:25.598Z,3.00
2017-05-16T07:15:51.961Z,2.84
2017-05-16T07:18:18.294Z,2.76
2017-05-16T07:20:44.657Z,2.08
2017-05-16T07:23:10.975Z,2.52
2017-05-16T07:25:37.298Z,2.06
2017-05-16T07:28:03.669Z,2.46
2017-05-16T07:30:29.987Z,2.64
2017-05-16T07:32:56.373Z,2.20
2017-05-16T07:35:22.690Z,2.38
2017-05-16T07:37:49.046Z,2.28
2017-05-16T07:40:15.402Z,2.34
2017-05-16T07:42:41.725Z,2.80
2017-05-16T07:45:08.114Z,2.38
2017-05-16T07:47:34.479Z,2.26
2017-05-16T07:50:00.837Z,1.94
2017-05-16T07:52:27.151Z,2.22
2017-05-16T07:54:53.478Z,2.48
2017-05-16T07:57:19.821Z,2.02
2017-05-16T07:59:46.136Z,2.22
2017-05-16T08:02:12.441Z,1.50
2017-05-16T08:04:38.764Z,2.38
2017-05-16T08:07:05.088Z,1.80
2017-05-16T08:09:31.423Z,2.44
2017-05-16T08:11:57.748Z,2.38
2017-05-16T08:14:24.136Z,2.40
2017-05-16T08:16:50.455Z,1.98
2017-05-16T08:19:16.797Z,2.20
2017-05-16T08:21:43.115Z,1.82
2017-05-16T08:24:09.448Z,2.24
2017-05-16T08:26:35.776Z,1.60
2017-05-16T08:29:02.098Z,1.74
2017-05-16T08:31:28.446Z,1.84
2017-05-16T08:33:54.811Z,1.76
2017-05-16T08:36:21.142Z,1.74
2017-05-16T08:38:47.461Z,1.92
2017-05-16T08:41:13.809Z,2.34
2017-05-16T08:43:40.138Z,2.12
2017-05-16T08:46:06.472Z,2.02
2017-05-16T08:48:32.822Z,2.04
2017-05-16T08:50:59.175Z,1.80
2017-05-16T08:53:25.573Z,1.80
2017-05-16T08:55:51.899Z,1.70
2017-05-16T08:58:18.194Z,1.70
2017-05-16T09:00:44.517Z,5.86
2017-05-16T09:03:10.874Z,1.26
2017-05-16T09:05:37.218Z,1.90
2017-05-16T09:08:03.582Z,1.86
2017-05-16T09:10:29.908Z,1.72
2017-05-16T09:12:56.265Z,2.16
2017-05-16T09:15:22.626Z,1.56
2017-05-16T09:17:48.981Z,1.96
2017-05-16T09:20:15.324Z,1.70
2017-05-16T09:22:41.665Z,2.00
2017-05-16T09:25:07.994Z,1.96
2017-05-16T09:27:34.337Z,2.20
2017-05-16T09:30:00.699Z,1.56
2017-05-16T09:32:27.000Z,2.20
2017-05-16T09:34:53.336Z,1.84
2017-05-16T09:37:19.631Z,1.72
2017-05-16T09:39:45.978Z,2.10
2017-05-16T09:42:12.308Z,1.92
2017-05-16T09:44:38.618Z,1.46
2017-05-16T09:47:04.951Z,2.00
2017-05-16T09:49:31.278Z,1.88
2017-05-16T09:51:57.634Z,1.30
2017-05-16T09:54:23.963Z,2.00
2017-05-16T09:56:50.311Z,1.28
2017-05-16T09:59:16.640Z,1.86
2017-05-16T10:01:42.990Z,1.84
2017-05-16T10:04:09.314Z,1.88
2017-05-16T10:06:35.634Z,1.88
2017-05-16T10:09:01.984Z,2.18
2017-05-16T10:11:28.328Z,2.74
2017-05-16T10:13:54.648Z,1.94
2017-05-16T10:16:20.981Z,1.66
2017-05-16T10:18:47.326Z,1.60
2017-05-16T10:21:13.655Z,1.58
2017-05-16T10:23:39.998Z,2.50
2017-05-16T10:26:06.328Z,1.32
2017-05-16T10:28:32.663Z,1.50
2017-05-16T10:30:59.002Z,1.90
2017-05-16T10:33:25.359Z,1.30
2017-05-16T10:38:17.465Z,1.98
2017-05-16T10:40:43.797Z,1.70
2017-05-16T10:43:10.103Z,1.48
2017-05-16T10:45:36.416Z,1.78
2017-05-16T10:48:02.815Z,1.80
2017-05-16T10:50:29.189Z,1.56
2017-05-16T10:52:55.511Z,1.38
2017-05-16T10:55:21.841Z,1.48
2017-05-16T10:57:48.181Z,1.50
2017-05-16T11:00:14.495Z,1.62
2017-05-16T11:02:40.819Z,1.70
2017-05-16T11:05:07.176Z,1.56
2017-05-16T11:07:33.511Z,1.92
2017-05-16T11:09:59.828Z,1.56
2017-05-16T11:12:26.148Z,1.50
2017-05-16T11:14:52.471Z,1.74
2017-05-16T11:17:18.770Z,2.00
2017-05-16T11:19:45.098Z,1.80
2017-05-16T11:22:11.440Z,1.64
2017-05-16T11:24:37.779Z,2.40
2017-05-16T11:27:04.114Z,1.50
2017-05-16T11:29:30.435Z,1.82
2017-05-16T11:31:56.777Z,1.86
2017-05-16T11:34:23.069Z,1.62
2017-05-16T11:36:49.422Z,1.72
2017-05-16T11:39:15.817Z,1.60
2017-05-16T11:41:42.131Z,1.44
2017-05-16T11:44:08.491Z,1.62
2017-05-16T11:46:34.835Z,1.72
2017-05-16T11:49:01.156Z,1.62
2017-05-16T11:51:27.959Z,1.86
2017-05-16T11:53:54.311Z,1.90
2017-05-16T11:56:20.642Z,1.70
2017-05-16T11:58:46.957Z,1.62
2017-05-16T12:01:13.298Z,1.66
2017-05-16T12:03:39.635Z,2.04
2017-05-16T12:06:05.980Z,1.68
2017-05-16T12:08:32.327Z,1.70
2017-05-16T12:10:58.650Z,1.76
2017-05-16T12:13:24.979Z,1.78
2017-05-16T12:15:51.329Z,1.58
2017-05-16T12:18:17.710Z,1.62
2017-05-16T12:20:44.022Z,1.66
2017-05-16T12:23:10.355Z,2.08
2017-05-16T12:25:36.670Z,1.90
2017-05-16T12:28:02.996Z,1.82
2017-05-16T12:30:29.314Z,1.60
2017-05-16T12:32:55.644Z,1.76
2017-05-16T12:35:21.958Z,2.24
2017-05-16T12:37:48.302Z,2.20
2017-05-16T12:40:14.642Z,1.72
2017-05-16T12:42:40.945Z,1.76
2017-05-16T12:45:07.263Z,1.74
2017-05-16T12:47:33.664Z,1.62
2017-05-16T12:49:59.997Z,1.88
2017-05-16T12:52:26.363Z,1.70
2017-05-16T12:54:52.677Z,1.50
2017-05-16T12:57:19.027Z,2.20
2017-05-16T12:59:45.378Z,2.04
2017-05-16T13:02:11.705Z,1.64
2017-05-16T13:04:38.019Z,2.00
2017-05-16T13:07:04.365Z,1.80
2017-05-16T13:09:30.705Z,1.80
2017-05-16T13:11:57.061Z,2.40
2017-05-16T13:14:23.393Z,2.12
2017-05-16T13:16:49.716Z,2.00
2017-05-16T13:19:16.049Z,1.94
2017-05-16T13:21:42.370Z,1.74
2017-05-16T13:24:08.732Z,1.84
2017-05-16T13:26:35.089Z,1.80
2017-05-16T13:29:01.438Z,2.10
2017-05-16T13:31:27.763Z,2.20
2017-05-16T13:33:54.104Z,1.78
2017-05-16T13:36:20.420Z,2.06
2017-05-16T13:38:46.736Z,2.40
2017-05-16T13:41:13.042Z,2.22
2017-05-16T13:43:39.380Z,2.26
2017-05-16T13:46:05.697Z,1.98
2017-05-16T13:48:32.011Z,1.70
2017-05-16T13:50:58.353Z,1.98
2017-05-16T13:53:24.686Z,1.82
2017-05-16T13:55:50.987Z,2.00
2017-05-16T13:58:17.312Z,2.28
2017-05-16T14:00:43.701Z,1.98
2017-05-16T14:03:10.032Z,2.22
2017-05-16T14:05:36.381Z,2.08
2017-05-16T14:08:02.697Z,1.90
2017-05-16T14:10:29.014Z,1.88
2017-05-16T14:12:55.353Z,1.84
2017-05-16T14:15:21.670Z,2.18
2017-05-16T14:17:48.011Z,2.00
2017-05-16T14:20:14.338Z,1.52
2017-05-16T14:22:40.666Z,1.80
2017-05-16T14:25:06.990Z,2.32
2017-05-16T14:27:33.340Z,1.86
2017-05-16T14:29:59.744Z,1.88
2017-05-16T14:32:26.094Z,1.74
2017-05-16T14:34:52.531Z,1.82
2017-05-16T14:37:18.881Z,2.38
2017-05-16T14:39:45.190Z,2.04
2017-05-16T14:42:11.512Z,2.08
2017-05-16T14:44:37.831Z,1.90
2017-05-16T14:47:04.201Z,1.88
2017-05-16T14:49:30.556Z,1.50
2017-05-16T14:51:56.889Z,2.08
2017-05-16T14:54:23.203Z,1.82
2017-05-16T14:56:49.557Z,2.30
2017-05-16T14:59:15.933Z,2.28
2017-05-16T15:01:42.294Z,2.00
2017-05-16T15:04:08.665Z,2.30
2017-05-16T15:06:35.017Z,2.60
2017-05-16T15:09:01.369Z,2.10
2017-05-16T15:11:27.800Z,2.28
2017-05-16T15:13:54.869Z,2.30
2017-05-16T15:16:21.248Z,2.20
2017-05-16T15:18:47.634Z,2.32
2017-05-16T15:21:14.204Z,1.90
2017-05-16T15:23:40.614Z,2.24
2017-05-16T15:26:06.948Z,2.28
2017-05-16T15:28:33.685Z,1.70
2017-05-16T15:31:00.023Z,2.22
2017-05-16T15:33:26.433Z,2.30
2017-05-16T15:35:52.790Z,2.30
2017-05-16T15:38:19.234Z,2.02
2017-05-16T15:40:45.573Z,2.24
2017-05-16T15:43:11.930Z,2.40
2017-05-16T15:45:38.329Z,2.20
2017-05-16T15:48:04.662Z,2.34
2017-05-16T15:50:30.995Z,2.58
2017-05-16T15:52:57.357Z,2.32
2017-05-16T15:55:23.733Z,2.00
2017-05-16T15:57:50.088Z,2.50
2017-05-16T16:00:16.460Z,2.36
2017-05-16T16:02:42.833Z,2.32
2017-05-16T16:05:09.175Z,3.76
2017-05-16T16:07:35.500Z,2.52
2017-05-16T16:10:01.859Z,2.42
2017-05-16T16:12:28.229Z,2.22
2017-05-16T16:14:54.577Z,2.36
2017-05-16T16:17:20.931Z,2.50
2017-05-16T16:19:47.513Z,2.84
2017-05-16T16:22:13.867Z,2.46
2017-05-16T16:24:40.208Z,2.30
2017-05-16T16:27:06.577Z,2.50
2017-05-16T16:29:32.911Z,2.64
2017-05-16T16:31:59.266Z,2.70
2017-05-16T16:34:25.631Z,2.76
2017-05-16T16:36:51.995Z,2.46
2017-05-16T16:39:18.352Z,2.70
2017-05-16T16:41:44.688Z,2.24
2017-05-16T16:44:11.045Z,2.30
2017-05-16T16:46:37.438Z,2.64
2017-05-16T16:49:03.774Z,2.00
2017-05-16T16:51:30.136Z,2.42
2017-05-16T16:53:56.524Z,2.76
2017-05-16T16:56:22.890Z,2.00
2017-05-16T16:58:49.244Z,2.16
2017-05-16T17:01:15.604Z,1.96
2017-05-16T17:03:41.965Z,2.22
2017-05-16T17:06:08.351Z,2.00
2017-05-16T17:08:34.714Z,2.42
2017-05-16T17:11:01.078Z,2.40
2017-05-16T17:13:27.419Z,6.58
2017-05-16T17:15:53.767Z,5.50
2017-05-16T17:18:20.137Z,2.30
2017-05-16T17:20:46.482Z,2.68
2017-05-16T17:23:12.835Z,2.08
2017-05-16T17:25:39.196Z,2.30
2017-05-16T17:28:05.547Z,2.46
2017-05-16T17:30:31.911Z,2.44
2017-05-16T17:32:58.269Z,2.16
2017-05-16T17:35:24.602Z,2.20
2017-05-16T17:37:50.958Z,2.10
2017-05-16T17:40:17.325Z,2.42
2017-05-16T17:42:43.646Z,2.04
2017-05-16T17:45:10.256Z,1.76
2017-05-16T17:47:36.594Z,2.18
2017-05-16T17:50:02.983Z,2.20
2017-05-16T17:52:29.349Z,2.12
2017-05-16T17:54:55.744Z,2.20
2017-05-16T17:57:22.709Z,1.60
2017-05-16T17:59:49.130Z,2.48
2017-05-16T18:02:15.559Z,2.24
2017-05-16T18:04:41.963Z,2.30
2017-05-16T18:07:08.330Z,4.46
2017-05-16T18:09:34.674Z,2.42
2017-05-16T18:12:01.093Z,2.42
2017-05-16T18:14:27.530Z,2.18
2017-05-16T18:16:53.886Z,2.40
2017-05-16T18:19:20.269Z,2.38
2017-05-16T18:21:46.688Z,2.02
2017-05-16T18:24:13.059Z,2.38
2017-05-16T18:26:39.389Z,2.86
2017-05-16T18:29:05.774Z,2.84
2017-05-16T18:31:32.191Z,3.18
2017-05-16T18:33:58.643Z,2.24
2017-05-16T18:36:24.967Z,2.56
2017-05-16T18:38:51.285Z,2.50
2017-05-16T18:41:17.635Z,2.50
2017-05-16T18:43:44.013Z,3.00
2017-05-16T18:46:10.376Z,2.40
2017-05-16T18:48:36.719Z,3.70
2017-05-16T18:51:03.083Z,3.00
2017-05-16T18:53:29.440Z,2.40
2017-05-16T18:55:55.777Z,2.66
2017-05-16T18:58:22.085Z,3.00
2017-05-16T19:00:48.442Z,2.94
2017-05-16T19:03:14.793Z,3.36
2017-05-16T19:05:41.169Z,4.32
2017-05-16T19:08:07.614Z,4.16
2017-05-16T19:10:34.428Z,3.40
2017-05-16T19:13:00.761Z,3.82
2017-05-16T19:15:28.011Z,5.24
2017-05-16T19:17:54.394Z,5.22
2017-05-16T19:20:20.748Z,4.60
2017-05-16T19:22:47.196Z,4.48
2017-05-16T19:25:13.557Z,2.86
2017-05-16T19:27:39.973Z,3.40
2017-05-16T19:30:06.349Z,3.86
2017-05-16T19:32:32.689Z,3.78
2017-05-16T19:34:59.014Z,4.34
2017-05-16T19:37:25.382Z,3.50
2017-05-16T19:39:51.728Z,3.66
2017-05-16T19:42:18.018Z,4.50
2017-05-16T19:44:44.367Z,3.38
2017-05-16T19:47:11.013Z,3.98
2017-05-16T19:49:37.366Z,3.46
2017-05-16T19:52:03.687Z,3.42
2017-05-16T19:54:30.206Z,4.54
2017-05-16T19:56:56.706Z,4.28
2017-05-16T19:59:23.046Z,4.08
2017-05-16T20:01:49.402Z,6.26
2017-05-16T20:04:16.217Z,3.76
2017-05-16T20:06:42.707Z,4.40
2017-05-16T20:09:09.206Z,3.92
2017-05-16T20:11:35.689Z,3.84
2017-05-16T20:14:02.051Z,4.36
2017-05-16T20:16:28.421Z,4.48
2017-05-16T20:18:54.793Z,4.16
2017-05-16T20:21:21.155Z,4.02
2017-05-16T20:23:47.616Z,4.68
2017-05-16T20:26:14.019Z,4.43
2017-05-16T20:28:40.383Z,5.42
2017-05-16T20:31:06.742Z,4.82
2017-05-16T20:33:33.086Z,5.10
2017-05-16T20:35:59.468Z,4.56
2017-05-16T20:38:25.848Z,4.20
2017-05-16T20:40:52.895Z,4.34
2017-05-16T20:43:19.338Z,4.98
2017-05-16T20:45:45.727Z,4.88
2017-05-16T20:48:12.113Z,4.32
2017-05-16T20:50:38.453Z,4.42
2017-05-16T20:53:04.824Z,4.70
2017-05-16T20:55:31.189Z,4.66
2017-05-16T20:57:57.527Z,5.08
2017-05-16T21:00:23.901Z,4.22
2017-05-16T21:02:50.255Z,4.22
2017-05-16T21:05:16.610Z,5.44
2017-05-16T21:07:42.934Z,4.88
2017-05-16T21:10:09.302Z,5.10
2017-05-16T21:12:35.717Z,5.40
2017-05-16T21:15:02.046Z,5.34
2017-05-16T21:17:28.368Z,6.00
2017-05-16T21:19:54.778Z,4.74
2017-05-16T21:22:21.131Z,5.30
2017-05-16T21:24:47.554Z,5.38
2017-05-16T21:27:13.909Z,6.28
2017-05-16T21:29:41.765Z,5.84
2017-05-16T21:32:08.165Z,6.24
2017-05-16T21:34:34.772Z,6.72
2017-05-16T21:37:01.264Z,6.06
2017-05-16T21:39:27.598Z,5.92
2017-05-16T21:41:54.493Z,5.40
2017-05-16T21:44:21.544Z,5.60
2017-05-16T21:46:47.886Z,6.00
2017-05-16T21:49:14.221Z,5.60
2017-05-16T21:51:40.576Z,6.10
2017-05-16T21:54:07.188Z,5.84
2017-05-16T21:56:33.530Z,4.98
2017-05-16T21:58:59.990Z,5.10
2017-05-16T22:01:26.353Z,5.98
2017-05-16T22:03:52.702Z,5.68
2017-05-16T22:06:19.031Z,5.70
2017-05-16T22:08:45.360Z,5.74
2017-05-16T22:11:11.703Z,5.70
2017-05-16T22:13:38.048Z,5.72
2017-05-16T22:16:04.382Z,6.42
2017-05-16T22:18:30.721Z,6.38
2017-05-16T22:20:57.059Z,6.24
2017-05-16T22:23:23.763Z,5.50
2017-05-16T22:25:49.887Z,5.34
2017-05-16T22:28:16.260Z,6.26
2017-05-16T22:30:42.589Z,5.90
2017-05-16T22:33:08.945Z,6.08
2017-05-16T22:35:35.322Z,6.00
2017-05-16T22:38:01.677Z,5.28
2017-05-16T22:40:28.270Z,6.20
2017-05-16T22:42:54.589Z,5.90
2017-05-16T22:45:21.200Z,6.34
2017-05-16T22:47:47.590Z,5.98
2017-05-16T22:50:14.145Z,6.34
2017-05-16T22:52:40.464Z,5.62
2017-05-16T22:55:06.800Z,6.20
2017-05-16T22:57:33.135Z,6.82
2017-05-16T22:59:59.753Z,6.30
2017-05-16T23:02:26.111Z,6.22
2017-05-16T23:04:53.021Z,6.08
2017-05-16T23:07:19.357Z,5.62
2017-05-16T23:09:45.687Z,6.98
2017-05-16T23:12:12.034Z,6.22
2017-05-16T23:14:38.346Z,5.30
2017-05-16T23:17:04.656Z,5.56
2017-05-16T23:19:31.233Z,6.34
2017-05-16T23:21:57.641Z,5.80
2017-05-16T23:24:23.976Z,6.28
2017-05-16T23:26:50.329Z,6.30
2017-05-16T23:29:16.658Z,6.14
2017-05-16T23:31:43.020Z,6.10
2017-05-16T23:34:09.334Z,5.88
2017-05-16T23:36:35.693Z,5.98
2017-05-16T23:39:02.010Z,5.86
2017-05-16T23:41:28.360Z,5.36
2017-05-16T23:43:54.686Z,6.08
2017-05-16T23:46:21.018Z,6.20
2017-05-16T23:48:47.366Z,6.40
2017-05-16T23:51:14.182Z,5.92
2017-05-16T23:53:40.507Z,5.26
2017-05-16T23:56:06.992Z,5.52
2017-05-16T23:58:34.425Z,6.20
